To NAV CANADA Home Page Login to a new session Search on AWWS site Feedback and Comments Disclaimer Vers la page française équivalente Tips FAQ What's new on the site To the Forecasts and Observations / NOTAM section To "File a Flight Plan" website Publications and other links Update of the User's profile FIC Telephone Numbers My Weather Data Folder Route Weather Data Regional Weather Data Local Weather Data To the Forecasts and Observations / NOTAM section
Request Generated 12/04/2016 at 22:22:00 UTC . Weather information available at that time is displayed.

METAR/TAF

TORONTO/BUTTONVILLE MUNICIPAL/ON    

METAR CYKZ 042200Z 11008KT 090V150 15SM FEW018 BKN043 00/M04 A3013
RMK SC1SC6 SLP211=
METAR CYKZ 042100Z 12007KT 15SM FEW020 BKN045 00/M04 A3014 RMK SC1SC6
SLP215=
METAR CYKZ 042000Z 12007KT 15SM FEW020 BKN042 01/M03 A3018 RMK SC1SC6
SLP228=

TAF CYKZ 041738Z 0418/0506 10007KT P6SM FEW020 BKN050 TEMPO 0418/0501
BKN020 OVC050
FM050100 10010KT P6SM BKN040 OVC090 TEMPO 0501/0503 2SM -SN
FEW012 OVC030
FM050300 12010KT 3/4SM -SN VV006
RMK NXT FCST BY 050000Z=
Your time UTC time
Weather data provided by Environment Canada and NAV CANADA